Time;durP1;ratioP1;P1;durP2;ratioP2;P2;SDS_P1;SDS_P2;PMS_P1;PMS_P2;Temp;Humidity;BMP_temperature;BMP_pressure;BME280_temperature;BME280_humidity;BME280_pressure;Samples;Min_cycle;Max_cycle;Signal;HPM_P1;HPM_P2
2022/04/08 00:00:37;;;;;;;4.40;1.10;;;4.70;99.90;;;;;;4989276;28;20042;-52
2022/04/08 00:03:03;;;;;;;2.78;0.85;;;4.70;99.90;;;;;;4989508;28;20073;-51
2022/04/08 00:05:28;;;;;;;4.03;0.68;;;4.70;99.90;;;;;;4989596;28;20035;-53
2022/04/08 00:07:54;;;;;;;4.38;0.85;;;4.70;99.90;;;;;;4989598;28;20358;-54
2022/04/08 00:10:19;;;;;;;1.50;1.17;;;4.70;99.90;;;;;;4989255;28;20514;-55
2022/04/08 00:12:45;;;;;;;2.35;0.52;;;4.70;99.90;;;;;;4989179;28;20038;-53
2022/04/08 00:15:11;;;;;;;3.58;0.95;;;4.60;99.90;;;;;;4989382;28;20066;-53
2022/04/08 00:17:36;;;;;;;3.28;0.80;;;4.60;99.90;;;;;;4989634;28;20022;-53
2022/04/08 00:20:03;;;;;;;4.57;1.33;;;4.60;99.90;;;;;;4989559;28;20026;-57
2022/04/08 00:22:29;;;;;;;4.22;0.93;;;4.60;99.90;;;;;;4989029;28;20520;-52
2022/04/08 00:24:55;;;;;;;4.43;0.98;;;4.60;99.90;;;;;;4993138;28;20026;-56
2022/04/08 00:27:20;;;;;;;3.50;0.50;;;4.60;99.90;;;;;;4992952;28;20026;-53
2022/04/08 00:29:46;;;;;;;1.40;0.55;;;4.50;99.90;;;;;;4993213;28;20032;-55
2022/04/08 00:32:11;;;;;;;7.35;1.35;;;4.50;99.90;;;;;;4990058;28;20563;-53
2022/04/08 00:34:37;;;;;;;6.22;1.00;;;4.50;99.90;;;;;;4992799;28;20489;-54
2022/04/08 00:37:03;;;;;;;1.92;0.50;;;4.50;99.90;;;;;;4992430;28;20823;-53
2022/04/08 00:39:28;;;;;;;4.72;1.23;;;4.50;99.90;;;;;;4993142;28;20033;-54
2022/04/08 00:41:54;;;;;;;3.92;1.08;;;4.50;99.90;;;;;;4986325;28;20023;-57
2022/04/08 00:44:20;;;;;;;2.40;1.02;;;4.50;99.90;;;;;;4973415;28;20620;-55
2022/04/08 00:46:45;;;;;;;5.70;1.33;;;4.50;99.90;;;;;;4982338;28;20031;-53
2022/04/08 00:49:11;;;;;;;5.10;1.15;;;4.50;99.90;;;;;;5001749;28;20135;-53
2022/04/08 00:51:37;;;;;;;3.67;0.57;;;4.50;99.90;;;;;;5012272;28;20103;-55
2022/04/08 00:54:03;;;;;;;4.88;1.02;;;4.50;99.90;;;;;;5012520;28;20021;-55
2022/04/08 00:56:30;;;;;;;1.98;0.90;;;4.50;99.90;;;;;;5011887;28;20530;-54
2022/04/08 00:58:57;;;;;;;3.65;1.13;;;4.50;99.90;;;;;;5010368;28;20101;-53
2022/04/08 01:01:26;;;;;;;3.95;1.55;;;4.50;99.90;;;;;;5010240;28;20034;-56
2022/04/08 01:03:52;;;;;;;7.55;1.38;;;4.50;99.90;;;;;;5010290;28;20566;-54
2022/04/08 01:06:19;;;;;;;9.93;1.27;;;4.40;99.90;;;;;;5012312;28;20030;-56
2022/04/08 01:08:46;;;;;;;5.47;1.23;;;4.40;99.90;;;;;;5012531;28;20026;-54
2022/04/08 01:11:12;;;;;;;5.43;1.20;;;4.40;99.90;;;;;;4996091;28;20121;-52
2022/04/08 01:13:38;;;;;;;3.90;1.27;;;4.40;99.90;;;;;;4992336;28;20165;-53
2022/04/08 01:16:07;;;;;;;3.40;0.93;;;4.40;99.90;;;;;;4992242;28;20038;-51
2022/04/08 01:18:32;;;;;;;5.57;1.50;;;4.40;99.90;;;;;;4992474;28;20104;-51
2022/04/08 01:21:01;;;;;;;5.38;1.58;;;4.40;99.90;;;;;;4992548;28;20385;-50
2022/04/08 01:23:29;;;;;;;9.13;1.13;;;4.40;99.90;;;;;;4991903;28;20027;-53
2022/04/08 01:25:54;;;;;;;2.78;1.60;;;4.40;99.90;;;;;;4992279;28;20038;-55
2022/04/08 01:28:20;;;;;;;7.07;1.52;;;4.40;99.90;;;;;;4992270;28;20608;-53
2022/04/08 01:30:46;;;;;;;3.33;1.27;;;4.30;99.90;;;;;;4992262;28;20480;-55
2022/04/08 01:33:11;;;;;;;5.93;1.15;;;4.40;99.90;;;;;;4991303;28;20041;-54
2022/04/08 01:35:37;;;;;;;3.47;1.33;;;4.40;99.90;;;;;;4991307;28;20126;-54
2022/04/08 01:38:02;;;;;;;3.22;0.90;;;4.40;99.90;;;;;;4990834;28;20027;-52
2022/04/08 01:40:28;;;;;;;9.23;1.90;;;4.40;99.90;;;;;;4992006;28;20033;-52
2022/04/08 01:42:54;;;;;;;5.97;2.28;;;4.40;99.90;;;;;;4991882;28;20109;-51
2022/04/08 01:45:19;;;;;;;8.82;2.03;;;4.40;99.90;;;;;;4992119;28;20493;-52
2022/04/08 01:47:46;;;;;;;5.15;1.00;;;4.40;99.90;;;;;;4991571;28;20030;-56
2022/04/08 01:50:13;;;;;;;3.72;1.15;;;4.40;99.90;;;;;;4990931;28;20106;-51
2022/04/08 01:52:39;;;;;;;3.83;1.08;;;4.40;99.90;;;;;;4991347;28;20045;-53
2022/04/08 01:55:05;;;;;;;4.80;1.13;;;4.40;99.90;;;;;;4990215;28;20038;-53
2022/04/08 01:57:30;;;;;;;3.97;1.27;;;4.40;99.90;;;;;;4991238;28;20073;-53
2022/04/08 01:59:56;;;;;;;8.48;2.35;;;4.40;99.90;;;;;;4991846;28;20125;-55
2022/04/08 02:02:22;;;;;;;4.82;1.30;;;4.40;99.90;;;;;;5002870;28;20037;-51
2022/04/08 02:04:47;;;;;;;5.53;1.20;;;4.30;99.90;;;;;;4991520;28;20027;-52
2022/04/08 02:07:13;;;;;;;7.10;1.65;;;4.30;99.90;;;;;;4991586;28;20102;-50
2022/04/08 02:09:39;;;;;;;4.03;1.50;;;4.30;99.90;;;;;;4988517;28;20054;-53
2022/04/08 02:12:04;;;;;;;5.78;1.52;;;4.30;99.90;;;;;;4972103;28;20027;-55
2022/04/08 02:14:30;;;;;;;13.07;1.50;;;4.40;99.90;;;;;;4971837;28;20476;-53
2022/04/08 02:16:56;;;;;;;5.38;1.20;;;4.40;99.90;;;;;;4970318;28;20118;-51
2022/04/08 02:19:21;;;;;;;4.82;1.35;;;4.30;99.90;;;;;;4972041;28;20539;-55
2022/04/08 02:21:48;;;;;;;5.88;1.40;;;4.30;99.90;;;;;;4972203;28;20039;-51
2022/04/08 02:24:14;;;;;;;10.38;1.30;;;4.30;99.90;;;;;;4971844;28;20023;-54
2022/04/08 02:26:40;;;;;;;6.82;1.50;;;4.20;99.90;;;;;;4971666;28;20444;-52
2022/04/08 02:29:05;;;;;;;21.40;2.60;;;4.20;99.90;;;;;;4971679;28;20034;-52
2022/04/08 02:31:31;;;;;;;4.18;0.95;;;4.20;99.90;;;;;;4971330;28;20043;-55
2022/04/08 02:33:56;;;;;;;7.97;1.40;;;4.20;99.90;;;;;;4971091;28;20535;-56
2022/04/08 02:36:22;;;;;;;11.20;1.35;;;4.10;99.90;;;;;;4971444;28;20432;-50
2022/04/08 02:38:47;;;;;;;5.68;1.50;;;4.10;99.90;;;;;;4972257;28;20477;-55
2022/04/08 02:41:13;;;;;;;4.68;1.33;;;4.10;99.90;;;;;;4971620;28;20033;-51
2022/04/08 02:43:39;;;;;;;4.68;1.17;;;4.10;99.90;;;;;;4971124;28;20140;-53
2022/04/08 02:46:04;;;;;;;7.70;1.38;;;4.10;99.90;;;;;;4984474;28;20030;-53
2022/04/08 02:48:30;;;;;;;4.55;1.05;;;4.10;99.90;;;;;;4990810;28;20527;-55
2022/04/08 02:50:55;;;;;;;4.55;1.42;;;4.10;99.90;;;;;;4990784;28;20044;-52
2022/04/08 02:53:21;;;;;;;6.07;1.33;;;4.10;99.90;;;;;;4990326;28;20403;-52
2022/04/08 02:55:46;;;;;;;8.32;2.00;;;4.10;99.90;;;;;;4988562;28;20472;-53
2022/04/08 02:58:12;;;;;;;7.45;1.60;;;4.10;99.90;;;;;;4990023;28;20031;-52
2022/04/08 03:00:39;;;;;;;7.90;2.10;;;4.10;99.90;;;;;;4990457;28;20109;-51
2022/04/08 03:03:05;;;;;;;5.68;1.75;;;4.10;99.90;;;;;;4988916;28;20026;-55
2022/04/08 03:05:30;;;;;;;5.28;1.40;;;4.10;99.90;;;;;;4990583;28;20097;-51
2022/04/08 03:07:56;;;;;;;8.02;2.03;;;4.10;99.90;;;;;;4990279;28;20038;-52
2022/04/08 03:10:22;;;;;;;9.20;2.03;;;4.10;99.90;;;;;;4990161;28;20109;-52
2022/04/08 03:12:47;;;;;;;9.20;1.48;;;4.10;99.90;;;;;;4989986;28;20069;-54
2022/04/08 03:15:13;;;;;;;10.38;2.67;;;4.10;99.90;;;;;;4990113;28;20038;-52
2022/04/08 03:17:38;;;;;;;10.73;2.17;;;4.10;99.90;;;;;;4989788;28;20031;-53
2022/04/08 03:20:05;;;;;;;6.82;1.65;;;4.10;99.90;;;;;;4990120;28;20112;-50
2022/04/08 03:22:31;;;;;;;6.13;1.67;;;4.20;99.90;;;;;;4989846;28;20398;-52
2022/04/08 03:24:56;;;;;;;12.73;2.05;;;4.20;99.90;;;;;;4988573;28;20030;-54
2022/04/08 03:27:22;;;;;;;10.50;2.33;;;4.20;99.90;;;;;;4989812;28;20036;-53
2022/04/08 03:29:50;;;;;;;5.70;2.10;;;4.20;99.90;;;;;;4989948;28;20054;-55
2022/04/08 03:32:16;;;;;;;9.68;2.30;;;4.20;99.90;;;;;;4990069;28;20389;-52
2022/04/08 03:34:41;;;;;;;7.18;2.40;;;4.20;99.90;;;;;;4989387;28;20110;-53
2022/04/08 03:37:07;;;;;;;12.23;2.33;;;4.20;99.90;;;;;;4989763;28;20066;-51
2022/04/08 03:39:33;;;;;;;11.52;2.30;;;4.30;99.90;;;;;;4989709;28;20532;-51
2022/04/08 03:41:59;;;;;;;8.73;2.22;;;4.20;99.90;;;;;;4990016;28;20033;-52
2022/04/08 03:44:25;;;;;;;8.93;2.38;;;4.30;99.90;;;;;;4989856;28;20080;-51
2022/04/08 03:46:50;;;;;;;10.70;2.58;;;4.30;99.90;;;;;;4989813;28;20432;-52
2022/04/08 03:49:17;;;;;;;9.93;1.77;;;4.30;99.90;;;;;;4988731;28;20027;-49
2022/04/08 03:51:44;;;;;;;12.00;3.15;;;4.20;99.90;;;;;;4989606;28;20535;-55
2022/04/08 03:54:10;;;;;;;10.95;2.60;;;4.20;99.90;;;;;;4989671;28;20027;-52
2022/04/08 03:56:37;;;;;;;9.15;2.10;;;4.20;99.90;;;;;;4989446;28;20048;-55
2022/04/08 03:59:03;;;;;;;8.90;2.17;;;4.20;99.90;;;;;;4999245;28;20026;-52
2022/04/08 04:01:29;;;;;;;12.77;2.30;;;4.20;99.90;;;;;;4998076;28;20480;-52
2022/04/08 04:03:54;;;;;;;9.43;2.25;;;4.20;99.90;;;;;;4974776;28;20061;-54
2022/04/08 04:06:20;;;;;;;7.90;2.55;;;4.20;99.90;;;;;;4973996;28;20034;-50
2022/04/08 04:08:46;;;;;;;20.20;2.67;;;4.20;99.90;;;;;;4974225;28;20034;-53
2022/04/08 04:11:14;;;;;;;13.82;3.25;;;4.20;99.90;;;;;;4974132;28;20038;-53
2022/04/08 04:13:41;;;;;;;6.28;2.30;;;4.20;99.90;;;;;;4973824;28;20030;-56
2022/04/08 04:16:06;;;;;;;6.82;2.03;;;4.20;99.90;;;;;;4973854;28;20027;-51
2022/04/08 04:18:32;;;;;;;13.95;2.85;;;4.20;99.90;;;;;;4974118;28;20396;-51
2022/04/08 04:20:57;;;;;;;8.00;1.98;;;4.20;99.90;;;;;;4977375;28;20077;-53
2022/04/08 04:23:23;;;;;;;10.43;2.38;;;4.10;99.90;;;;;;4992977;28;20081;-52
2022/04/08 04:25:48;;;;;;;9.52;1.88;;;4.10;99.90;;;;;;4993314;28;20102;-53
2022/04/08 04:28:15;;;;;;;6.97;1.67;;;4.10;99.90;;;;;;4993204;28;20057;-49
2022/04/08 04:30:41;;;;;;;12.32;2.95;;;4.10;99.90;;;;;;4992922;28;20022;-49
2022/04/08 04:33:07;;;;;;;12.15;3.05;;;4.10;99.90;;;;;;4992254;28;20121;-52
2022/04/08 04:35:36;;;;;;;10.43;2.25;;;4.10;99.90;;;;;;4992556;28;20085;-53
2022/04/08 04:38:02;;;;;;;19.65;2.85;;;4.10;99.90;;;;;;4993150;28;20030;-50
2022/04/08 04:40:28;;;;;;;7.47;2.20;;;4.10;99.90;;;;;;4974146;28;20023;-52
2022/04/08 04:42:55;;;;;;;4.63;1.58;;;4.00;99.90;;;;;;4973660;28;20037;-54
2022/04/08 04:45:21;;;;;;;10.82;2.20;;;4.00;99.90;;;;;;4986178;28;20030;-51
2022/04/08 04:47:47;;;;;;;8.75;1.90;;;4.00;99.90;;;;;;4992391;28;20026;-50
2022/04/08 04:50:12;;;;;;;13.43;2.28;;;3.90;99.90;;;;;;4992123;28;20034;-54
2022/04/08 04:52:38;;;;;;;9.55;1.90;;;3.90;99.90;;;;;;4991927;28;20062;-53
2022/04/08 04:55:05;;;;;;;10.63;3.00;;;3.80;99.90;;;;;;4992764;28;20400;-50
2022/04/08 04:57:31;;;;;;;14.95;2.53;;;3.80;99.90;;;;;;4992790;28;20030;-49
2022/04/08 04:59:56;;;;;;;9.52;2.17;;;3.80;99.90;;;;;;4992866;28;20033;-54
2022/04/08 05:02:22;;;;;;;10.65;1.83;;;3.80;99.90;;;;;;4992365;28;20050;-50
2022/04/08 05:04:47;;;;;;;9.10;2.33;;;3.80;99.90;;;;;;4992581;28;20030;-54
2022/04/08 05:07:13;;;;;;;10.07;1.95;;;3.90;99.90;;;;;;4992404;28;20014;-53
2022/04/08 05:09:40;;;;;;;13.88;2.22;;;3.80;99.90;;;;;;4991790;28;20414;-52
2022/04/08 05:12:07;;;;;;;9.27;1.85;;;3.90;99.90;;;;;;4992276;28;20022;-51
2022/04/08 05:14:32;;;;;;;9.48;2.08;;;3.90;99.90;;;;;;5004394;28;20029;-51
2022/04/08 05:16:58;;;;;;;13.23;2.10;;;3.90;99.90;;;;;;4992407;28;20026;-51
2022/04/08 05:19:24;;;;;;;12.88;2.67;;;3.80;99.90;;;;;;4991202;28;20081;-51
2022/04/08 05:21:52;;;;;;;5.60;1.95;;;3.80;99.90;;;;;;4992205;28;20080;-50
2022/04/08 05:24:21;;;;;;;10.75;1.75;;;3.80;99.90;;;;;;4991584;28;20138;-53
2022/04/08 05:26:47;;;;;;;9.48;2.17;;;3.80;99.90;;;;;;4992187;28;20026;-56
2022/04/08 05:29:12;;;;;;;5.85;2.20;;;3.70;99.90;;;;;;4992128;28;20642;-53
2022/04/08 05:31:38;;;;;;;5.60;1.90;;;3.70;99.90;;;;;;4992110;28;20041;-54
2022/04/08 05:34:03;;;;;;;9.63;1.83;;;3.70;99.90;;;;;;4990457;28;20038;-51
2022/04/08 05:36:29;;;;;;;8.90;1.63;;;3.70;99.90;;;;;;4992419;28;20036;-53
2022/04/08 05:38:55;;;;;;;6.15;1.65;;;3.70;99.90;;;;;;4992355;28;20025;-52
2022/04/08 05:41:21;;;;;;;12.77;2.30;;;3.70;99.90;;;;;;4992069;28;20030;-51
2022/04/08 05:43:47;;;;;;;6.85;1.92;;;3.80;99.90;;;;;;4991712;28;20050;-50
2022/04/08 05:46:13;;;;;;;5.53;1.75;;;3.70;99.90;;;;;;5000555;28;20626;-55
2022/04/08 05:48:39;;;;;;;8.80;2.25;;;3.60;99.90;;;;;;4999093;28;20425;-55
2022/04/08 05:51:05;;;;;;;9.10;1.65;;;3.50;99.90;;;;;;4991648;28;20022;-54
2022/04/08 05:53:30;;;;;;;6.40;2.13;;;3.50;99.90;;;;;;4991270;28;20030;-53
2022/04/08 05:55:57;;;;;;;9.85;1.70;;;3.40;99.90;;;;;;4991199;28;20537;-56
2022/04/08 05:58:22;;;;;;;7.40;2.22;;;3.40;99.90;;;;;;4991579;28;20444;-55
2022/04/08 06:00:48;;;;;;;9.82;1.55;;;3.40;99.90;;;;;;4991517;28;20022;-55
2022/04/08 06:03:14;;;;;;;6.00;1.45;;;3.30;99.90;;;;;;4990617;28;20057;-55
2022/04/08 06:05:40;;;;;;;8.00;1.73;;;3.40;99.90;;;;;;4991594;28;20030;-54
2022/04/08 06:08:06;;;;;;;5.10;1.38;;;3.40;99.90;;;;;;4991231;28;20034;-53
2022/04/08 06:10:31;;;;;;;6.18;1.73;;;3.40;99.90;;;;;;4991560;28;20038;-50
2022/04/08 06:12:57;;;;;;;10.63;2.05;;;3.40;99.90;;;;;;4991451;28;20027;-55
2022/04/08 06:15:23;;;;;;;10.52;2.58;;;3.50;99.90;;;;;;4991577;28;20034;-53
2022/04/08 06:17:49;;;;;;;3.13;1.50;;;3.50;99.90;;;;;;4991433;28;20501;-53
2022/04/08 06:20:18;;;;;;;10.35;2.20;;;3.60;99.90;;;;;;4991292;28;20037;-51
2022/04/08 06:22:47;;;;;;;7.35;1.27;;;3.60;99.90;;;;;;4990401;28;20409;-53
2022/04/08 06:25:16;;;;;;;5.63;1.80;;;3.60;99.90;;;;;;4991194;28;20053;-53
2022/04/08 06:27:44;;;;;;;6.35;1.88;;;3.60;99.90;;;;;;4991245;28;20508;-54
2022/04/08 06:30:12;;;;;;;6.68;1.38;;;3.60;99.90;;;;;;4995539;28;20088;-53
2022/04/08 06:32:39;;;;;;;16.20;2.55;;;3.60;99.90;;;;;;4996227;28;20030;-55
2022/04/08 06:35:05;;;;;;;6.32;1.90;;;3.50;99.90;;;;;;4992680;28;20041;-52
2022/04/08 06:37:30;;;;;;;7.13;2.17;;;3.60;99.90;;;;;;4990638;28;20113;-53
2022/04/08 06:40:01;;;;;;;8.70;1.63;;;3.60;99.90;;;;;;4991056;28;20109;-53
2022/04/08 06:42:27;;;;;;;15.55;2.15;;;3.60;99.90;;;;;;4989958;28;20161;-53
2022/04/08 06:44:52;;;;;;;12.55;2.78;;;3.70;99.90;;;;;;4990858;28;20663;-52
2022/04/08 06:47:18;;;;;;;7.75;2.05;;;3.70;99.90;;;;;;4990862;28;20170;-54
2022/04/08 06:49:46;;;;;;;5.50;1.83;;;3.90;99.90;;;;;;4989519;28;20084;-55
2022/04/08 06:52:12;;;;;;;8.73;2.17;;;3.90;99.90;;;;;;4990438;28;20030;-53
2022/04/08 06:54:39;;;;;;;11.80;1.98;;;4.00;99.90;;;;;;4990867;28;20034;-52
2022/04/08 06:57:04;;;;;;;9.18;1.98;;;4.10;99.90;;;;;;4990605;28;20050;-54
2022/04/08 06:59:30;;;;;;;9.77;2.33;;;4.20;99.90;;;;;;4990402;28;20085;-52
2022/04/08 07:01:55;;;;;;;9.23;1.95;;;4.30;99.90;;;;;;4989916;28;20038;-53
2022/04/08 07:04:21;;;;;;;8.05;1.70;;;4.30;99.90;;;;;;4990312;28;20036;-53
2022/04/08 07:06:47;;;;;;;7.93;1.40;;;4.40;99.90;;;;;;4990301;28;20033;-55
2022/04/08 07:09:12;;;;;;;12.70;2.05;;;4.50;99.90;;;;;;4990579;28;20027;-53
2022/04/08 07:11:38;;;;;;;9.30;1.52;;;4.60;99.90;;;;;;4990490;28;20089;-55
2022/04/08 07:14:04;;;;;;;6.38;2.65;;;4.80;99.90;;;;;;4990396;28;20503;-51
2022/04/08 07:16:30;;;;;;;7.20;1.45;;;4.90;99.90;;;;;;4990209;28;20483;-55
2022/04/08 07:18:55;;;;;;;8.00;1.83;;;5.10;99.90;;;;;;4989270;28;20022;-57
2022/04/08 07:21:22;;;;;;;9.82;2.22;;;5.20;99.90;;;;;;4984420;28;20081;-52
2022/04/08 07:23:48;;;;;;;11.68;2.22;;;5.40;99.90;;;;;;4988597;28;20031;-55
2022/04/08 07:26:13;;;;;;;8.60;1.98;;;5.50;99.90;;;;;;4989913;28;20037;-55
2022/04/08 07:28:39;;;;;;;7.90;1.55;;;5.50;99.90;;;;;;4991978;28;20477;-55
2022/04/08 07:31:05;;;;;;;7.80;2.08;;;5.60;99.90;;;;;;4996721;28;20030;-51
2022/04/08 07:33:30;;;;;;;7.65;2.45;;;5.70;99.90;;;;;;4988895;28;20378;-55
2022/04/08 07:35:58;;;;;;;7.35;1.73;;;5.80;99.90;;;;;;4987583;28;20070;-54
2022/04/08 07:38:24;;;;;;;7.22;1.65;;;5.80;99.90;;;;;;4983516;28;20081;-50
2022/04/08 07:40:50;;;;;;;9.50;1.85;;;5.80;99.90;;;;;;4979496;28;20382;-52
2022/04/08 07:43:16;;;;;;;7.95;1.33;;;5.80;99.90;;;;;;4989780;28;20023;-53
2022/04/08 07:45:42;;;;;;;4.72;1.20;;;5.70;99.90;;;;;;4989907;28;20105;-51
2022/04/08 07:48:08;;;;;;;8.02;1.55;;;5.70;99.90;;;;;;4990121;28;20106;-51
2022/04/08 07:50:37;;;;;;;4.40;1.20;;;5.90;99.90;;;;;;4989804;28;20106;-54
2022/04/08 07:53:03;;;;;;;4.15;1.30;;;6.20;99.90;;;;;;4988456;28;20033;-55
2022/04/08 07:55:29;;;;;;;3.10;1.35;;;6.40;99.90;;;;;;4989755;28;20030;-54
2022/04/08 07:57:54;;;;;;;4.30;1.48;;;6.60;99.90;;;;;;4989710;28;20022;-54
2022/04/08 08:00:25;;;;;;;7.30;1.45;;;6.50;99.90;;;;;;4989904;28;20489;-54
2022/04/08 08:02:51;;;;;;;3.65;1.23;;;6.30;99.90;;;;;;4988214;28;20027;-53
2022/04/08 08:05:18;;;;;;;5.10;1.55;;;6.30;99.90;;;;;;4989893;28;20100;-54
2022/04/08 08:07:45;;;;;;;5.40;1.60;;;6.20;99.90;;;;;;4989703;28;20022;-54
2022/04/08 08:10:14;;;;;;;5.28;0.88;;;6.20;99.90;;;;;;4990025;28;20037;-53
2022/04/08 08:12:40;;;;;;;6.70;1.65;;;6.10;99.90;;;;;;4989645;28;20135;-53
2022/04/08 08:15:05;;;;;;;2.65;1.13;;;5.90;99.90;;;;;;4990158;28;20107;-50
2022/04/08 08:17:31;;;;;;;4.25;1.05;;;5.80;99.90;;;;;;4989709;28;20105;-52
2022/04/08 08:19:57;;;;;;;4.28;1.48;;;5.70;99.90;;;;;;4989651;28;20034;-52
2022/04/08 08:22:23;;;;;;;2.58;1.02;;;5.50;99.90;;;;;;4989179;28;20126;-55
2022/04/08 08:24:48;;;;;;;4.32;1.15;;;5.40;99.90;;;;;;4988121;28;20030;-53
2022/04/08 08:27:14;;;;;;;2.30;1.15;;;5.40;99.90;;;;;;4989555;28;20038;-53
2022/04/08 08:29:39;;;;;;;6.80;1.52;;;5.50;99.90;;;;;;4989282;28;20045;-55
2022/04/08 08:32:05;;;;;;;6.70;1.25;;;5.70;99.90;;;;;;4989377;28;20030;-52
2022/04/08 08:34:31;;;;;;;7.97;1.85;;;6.10;99.90;;;;;;4988604;28;20037;-55
2022/04/08 08:36:59;;;;;;;2.65;1.02;;;6.40;99.90;;;;;;4989118;28;20057;-53
2022/04/08 08:39:26;;;;;;;4.22;1.40;;;6.50;99.90;;;;;;4989435;28;20045;-53
2022/04/08 08:41:51;;;;;;;9.57;1.30;;;6.50;99.90;;;;;;4989147;28;20511;-56
2022/04/08 08:44:19;;;;;;;4.05;1.10;;;6.40;99.90;;;;;;4990268;28;20030;-55
2022/04/08 08:46:45;;;;;;;3.78;0.95;;;6.40;99.90;;;;;;4992767;28;20123;-53
2022/04/08 08:49:16;;;;;;;4.05;1.35;;;6.50;99.90;;;;;;4992980;28;20085;-55
2022/04/08 08:51:46;;;;;;;6.60;1.48;;;6.60;99.90;;;;;;4993857;28;20030;-57
2022/04/08 08:54:11;;;;;;;3.85;1.73;;;7.00;99.90;;;;;;4993247;28;20109;-54
2022/04/08 08:56:37;;;;;;;7.70;1.95;;;7.30;99.90;;;;;;4991690;28;20110;-52
2022/04/08 08:59:02;;;;;;;8.05;1.70;;;7.30;99.90;;;;;;4992922;28;20049;-55
2022/04/08 09:01:28;;;;;;;7.43;1.25;;;7.10;99.90;;;;;;4992274;28;21027;-56
2022/04/08 09:03:54;;;;;;;5.55;1.67;;;7.10;99.90;;;;;;4992640;28;20525;-55
2022/04/08 09:06:20;;;;;;;6.53;1.48;;;7.10;99.90;;;;;;4992222;28;20548;-55
2022/04/08 09:08:56;;;;;;;5.88;1.80;;;7.20;99.90;;;;;;4992832;28;20031;-54
2022/04/08 09:11:28;;;;;;;5.88;1.58;;;7.50;99.90;;;;;;4990975;28;20060;-57
2022/04/08 09:14:01;;;;;;;4.47;1.05;;;7.60;99.90;;;;;;4992523;28;20365;-54
2022/04/08 09:16:27;;;;;;;4.05;1.40;;;7.90;99.90;;;;;;4991828;28;20555;-52
2022/04/08 09:18:54;;;;;;;5.10;1.77;;;8.00;99.90;;;;;;4992391;28;20046;-52
2022/04/08 09:21:26;;;;;;;6.30;1.60;;;8.10;99.90;;;;;;4992654;28;20022;-55
2022/04/08 09:23:52;;;;;;;3.33;0.93;;;8.20;99.90;;;;;;4990673;28;20018;-53
2022/04/08 09:26:19;;;;;;;5.80;1.13;;;8.40;99.90;;;;;;4992421;28;20573;-57
2022/04/08 09:28:45;;;;;;;3.40;1.48;;;8.60;99.90;;;;;;4992435;28;20485;-53
2022/04/08 09:31:21;;;;;;;3.65;1.10;;;8.70;99.90;;;;;;4992425;28;20023;-53
2022/04/08 09:33:52;;;;;;;3.50;1.38;;;8.60;99.90;;;;;;4991642;28;20026;-53
2022/04/08 09:36:32;;;;;;;9.55;1.13;;;8.30;99.90;;;;;;4991912;28;20061;-52
2022/04/08 09:38:58;;;;;;;8.68;1.60;;;8.10;99.90;;;;;;4992027;28;20065;-56
2022/04/08 09:41:56;;;;;;;7.07;1.42;;;7.90;99.90;;;;;;4992063;28;20026;-56
2022/04/08 09:44:24;;;;;;;4.05;1.02;;;7.90;99.90;;;;;;4991594;28;20467;-56
2022/04/08 09:46:50;;;;;;;5.78;1.70;;;8.10;99.90;;;;;;4991852;28;20445;-53
2022/04/08 09:49:16;;;;;;;2.72;1.20;;;8.30;99.90;;;;;;4991753;28;20026;-53
2022/04/08 09:51:42;;;;;;;3.28;1.20;;;8.30;99.90;;;;;;4992035;28;20018;-53
2022/04/08 09:54:14;;;;;;;7.18;1.73;;;8.20;99.90;;;;;;4991478;28;20042;-55
2022/04/08 09:56:43;;;;;;;4.75;1.48;;;8.10;99.90;;;;;;4990927;28;20085;-57
2022/04/08 09:59:15;;;;;;;6.30;1.50;;;8.10;99.90;;;;;;4991758;28;20076;-53
2022/04/08 10:01:44;;;;;;;12.02;1.48;;;8.30;99.90;;;;;;4991109;28;20097;-55
2022/04/08 10:04:10;;;;;;;4.28;1.20;;;8.50;99.90;;;;;;4991661;28;20022;-55
2022/04/08 10:06:37;;;;;;;2.72;0.77;;;8.60;99.90;;;;;;4991759;28;20081;-52
2022/04/08 10:09:04;;;;;;;3.70;1.33;;;9.00;99.90;;;;;;4990940;28;20034;-55
2022/04/08 10:11:52;;;;;;;3.72;0.80;;;9.00;99.90;;;;;;4980977;28;20034;-55
2022/04/08 10:14:42;;;;;;;1.77;1.10;;;9.10;99.90;;;;;;4991361;28;20102;-55
2022/04/08 10:17:08;;;;;;;4.93;0.93;;;9.10;99.90;;;;;;4971910;28;20113;-57
2022/04/08 10:19:34;;;;;;;4.65;1.20;;;9.20;99.90;;;;;;4986994;28;20027;-53
2022/04/08 10:22:00;;;;;;;5.05;1.00;;;9.20;99.90;;;;;;4991181;28;20029;-56
2022/04/08 10:24:30;;;;;;;3.97;0.82;;;9.20;99.90;;;;;;4990851;28;20030;-54
2022/04/08 10:27:09;;;;;;;2.00;0.60;;;9.20;99.90;;;;;;4989846;28;20052;-52
2022/04/08 10:29:35;;;;;;;1.08;0.70;;;9.10;99.90;;;;;;4991117;28;20073;-51
2022/04/08 10:32:14;;;;;;;2.30;1.20;;;9.10;99.90;;;;;;4990969;28;20037;-55
2022/04/08 10:34:40;;;;;;;1.30;0.90;;;8.90;99.90;;;;;;4990812;28;20109;-56
2022/04/08 10:37:17;;;;;;;3.63;1.48;;;8.80;99.90;;;;;;4991268;28;20577;-56
2022/04/08 10:40:02;;;;;;;2.22;0.98;;;9.00;99.90;;;;;;4990734;28;20026;-54
2022/04/08 10:42:29;;;;;;;3.28;0.80;;;9.40;99.90;;;;;;4990979;28;20105;-55
2022/04/08 10:44:55;;;;;;;1.17;0.68;;;9.50;99.90;;;;;;4990798;28;20380;-54
2022/04/08 10:47:22;;;;;;;4.47;1.05;;;9.50;99.90;;;;;;4989677;28;20026;-52
2022/04/08 10:49:49;;;;;;;2.90;1.08;;;9.50;99.90;;;;;;4991028;28;20026;-58
2022/04/08 10:52:17;;;;;;;1.92;1.05;;;9.50;99.90;;;;;;4992651;28;20393;-55
2022/04/08 10:54:42;;;;;;;5.05;1.00;;;9.60;99.90;;;;;;4991419;28;20022;-53
2022/04/08 10:57:08;;;;;;;3.30;1.20;;;9.80;99.90;;;;;;4990876;28;20034;-53
2022/04/08 10:59:34;;;;;;;2.28;1.05;;;10.00;99.90;;;;;;4990294;28;20089;-54
2022/04/08 11:02:05;;;;;;;3.95;0.95;;;10.20;99.90;;;;;;4990661;28;20026;-54
2022/04/08 11:04:31;;;;;;;6.40;1.02;;;10.30;99.90;;;;;;4990505;28;20054;-53
2022/04/08 11:07:02;;;;;;;2.58;1.08;;;10.20;99.90;;;;;;4990678;28;20464;-54
2022/04/08 11:09:29;;;;;;;1.85;1.00;;;9.90;99.90;;;;;;4989891;28;20501;-56
2022/04/08 11:11:55;;;;;;;5.43;0.93;;;9.80;99.90;;;;;;4989939;28;20034;-53
2022/04/08 11:14:21;;;;;;;2.95;0.90;;;9.40;99.90;;;;;;4990312;28;20116;-55
2022/04/08 11:16:51;;;;;;;3.08;0.98;;;9.30;99.90;;;;;;4990246;28;20083;-56
2022/04/08 11:19:20;;;;;;;4.45;1.40;;;9.30;99.90;;;;;;4990888;28;20018;-56
2022/04/08 11:21:48;;;;;;;3.22;1.48;;;9.50;99.90;;;;;;4990846;28;20231;-55
2022/04/08 11:24:16;;;;;;;3.35;1.00;;;9.50;99.90;;;;;;4990363;28;20034;-57
2022/04/08 11:26:42;;;;;;;1.48;0.98;;;9.60;99.90;;;;;;4990330;28;20571;-55
2022/04/08 11:29:16;;;;;;;1.85;0.93;;;9.70;99.90;;;;;;4990337;28;20070;-53
2022/04/08 11:31:44;;;;;;;3.80;1.10;;;9.60;99.90;;;;;;4989712;28;20496;-57
2022/04/08 11:34:11;;;;;;;3.28;1.13;;;9.60;99.90;;;;;;4988811;28;20026;-55
2022/04/08 11:36:37;;;;;;;2.92;1.00;;;9.50;99.90;;;;;;4989403;28;20026;-54
2022/04/08 11:39:06;;;;;;;2.45;0.90;;;9.60;99.90;;;;;;4990006;28;20435;-55
2022/04/08 11:41:33;;;;;;;2.53;1.00;;;9.60;99.90;;;;;;4990056;28;20022;-56
2022/04/08 11:44:01;;;;;;;4.55;0.70;;;9.50;99.90;;;;;;4989894;28;20027;-55
2022/04/08 11:46:26;;;;;;;3.50;0.88;;;9.50;99.90;;;;;;4989907;28;20026;-56
2022/04/08 11:48:52;;;;;;;4.20;1.17;;;9.50;99.90;;;;;;4990227;28;20714;-53
2022/04/08 11:51:22;;;;;;;1.50;1.02;;;9.60;99.90;;;;;;4988734;28;20030;-57
2022/04/08 11:53:53;;;;;;;2.30;0.70;;;9.90;99.90;;;;;;4989873;28;20042;-55
2022/04/08 11:56:22;;;;;;;3.65;0.90;;;9.90;99.90;;;;;;4989641;28;20038;-56
2022/04/08 11:58:53;;;;;;;2.45;0.70;;;10.10;99.90;;;;;;4990213;28;20026;-55
2022/04/08 12:01:19;;;;;;;1.77;0.88;;;10.30;99.90;;;;;;4990201;28;20025;-57
2022/04/08 12:03:45;;;;;;;1.60;0.88;;;10.30;99.70;;;;;;4988747;28;20139;-51
2022/04/08 12:06:10;;;;;;;2.67;0.52;;;10.20;99.50;;;;;;4990100;28;20644;-54
2022/04/08 12:08:37;;;;;;;2.42;0.60;;;10.20;98.70;;;;;;4989863;28;20052;-53
2022/04/08 12:11:08;;;;;;;2.13;0.68;;;10.30;92.60;;;;;;4990152;28;20121;-53
2022/04/08 12:13:35;;;;;;;2.30;0.57;;;10.30;92.00;;;;;;4989564;28;20030;-55
2022/04/08 12:16:00;;;;;;;3.53;0.52;;;10.40;97.00;;;;;;4989361;28;20045;-53
2022/04/08 12:18:29;;;;;;;0.88;0.68;;;10.40;97.70;;;;;;4989977;28;20121;-55
2022/04/08 12:21:00;;;;;;;1.55;0.98;;;10.40;99.90;;;;;;4993398;28;20030;-56
2022/04/08 12:23:27;;;;;;;2.15;1.00;;;10.40;99.90;;;;;;4992995;28;20038;-56
2022/04/08 12:25:55;;;;;;;4.05;1.15;;;10.40;99.90;;;;;;4993429;28;20081;-52
2022/04/08 12:28:25;;;;;;;3.33;0.90;;;10.20;99.50;;;;;;4993066;28;20038;-54
2022/04/08 12:30:51;;;;;;;5.65;0.90;;;10.10;99.90;;;;;;4989165;28;20042;-55
2022/04/08 12:33:18;;;;;;;4.30;1.00;;;10.10;99.90;;;;;;4993019;28;20037;-56
2022/04/08 12:35:44;;;;;;;3.40;0.82;;;10.20;99.70;;;;;;4992516;28;20027;-51
2022/04/08 12:38:10;;;;;;;2.70;0.65;;;10.20;99.90;;;;;;4993094;28;20473;-51
2022/04/08 12:40:36;;;;;;;1.80;0.90;;;10.30;99.90;;;;;;4993367;28;20022;-54
2022/04/08 12:43:01;;;;;;;2.17;0.82;;;10.40;99.90;;;;;;4992517;28;20038;-52
2022/04/08 12:45:30;;;;;;;2.45;0.80;;;10.30;99.90;;;;;;4992770;28;20034;-53
2022/04/08 12:47:55;;;;;;;1.15;0.65;;;10.20;99.90;;;;;;4993072;28;20396;-53
2022/04/08 12:50:21;;;;;;;7.88;0.80;;;10.10;99.90;;;;;;4993194;28;20026;-54
2022/04/08 12:52:47;;;;;;;0.52;0.52;;;10.10;99.90;;;;;;4993779;28;20035;-52